createdAt,value
2022-09-12T00:00:26.736Z,59.32
2022-09-12T00:02:58.789Z,58.74
2022-09-12T00:05:31.637Z,58.78
2022-09-12T00:08:11.658Z,58.70
2022-09-12T00:10:40.304Z,58.35
2022-09-12T00:13:14.147Z,58.78
2022-09-12T00:15:44.583Z,58.49
2022-09-12T00:18:22.043Z,57.80
2022-09-12T00:21:15.517Z,58.47
2022-09-12T00:23:51.437Z,57.74
2022-09-12T00:26:33.073Z,57.88
2022-09-12T00:29:03.752Z,58.46
2022-09-12T00:31:40.123Z,58.42
2022-09-12T00:34:10.929Z,57.91
2022-09-12T00:36:48.042Z,58.06
2022-09-12T00:39:24.062Z,58.14
2022-09-12T00:41:54.987Z,58.16
2022-09-12T00:44:28.896Z,58.19
2022-09-12T00:46:59.745Z,58.08
2022-09-12T00:49:52.690Z,58.88
2022-09-12T00:52:26.916Z,58.98
2022-09-12T00:55:10.050Z,59.09
2022-09-12T00:58:07.497Z,58.79
2022-09-12T01:00:42.121Z,59.94
2022-09-12T01:03:19.807Z,59.55
2022-09-12T01:06:02.498Z,60.14
2022-09-12T01:08:35.555Z,59.84
2022-09-12T01:11:14.648Z,59.46
2022-09-12T01:13:47.028Z,59.31
2022-09-12T01:16:23.076Z,59.23
2022-09-12T01:19:01.752Z,58.87
2022-09-12T01:21:44.799Z,57.57
2022-09-12T01:27:22.489Z,59.24
2022-09-12T01:30:04.675Z,59.01
2022-09-12T01:32:49.393Z,58.93
2022-09-12T01:38:38.210Z,59.06
2022-09-12T01:41:18.156Z,58.46
2022-09-12T01:44:01.392Z,58.53
2022-09-12T01:46:35.984Z,59.18
2022-09-12T01:49:23.812Z,60.11
2022-09-12T01:51:57.125Z,60.05
2022-09-12T01:54:26.900Z,59.05
2022-09-12T01:56:59.881Z,59.09
2022-09-12T01:59:39.898Z,58.78
2022-09-12T02:02:20.660Z,58.94
2022-09-12T02:04:54.198Z,58.91
2022-09-12T02:10:22.198Z,59.87
2022-09-12T02:12:56.510Z,59.27
2022-09-12T02:15:38.626Z,59.58
2022-09-12T02:18:10.129Z,59.22
2022-09-12T02:20:48.996Z,59.64
2022-09-12T02:23:29.320Z,60.94
2022-09-12T02:29:02.415Z,60.41
2022-09-12T02:31:47.034Z,61.21
2022-09-12T02:34:46.617Z,60.75
2022-09-12T02:37:29.657Z,61.31
2022-09-12T02:40:01.330Z,60.88
2022-09-12T02:42:33.855Z,60.75
2022-09-12T02:45:08.312Z,61.06
2022-09-12T02:47:53.504Z,60.81
2022-09-12T02:50:23.985Z,60.22
2022-09-12T02:53:05.925Z,60.49
2022-09-12T02:55:41.515Z,60.53
2022-09-12T02:58:22.422Z,60.37
2022-09-12T03:01:02.825Z,59.59
2022-09-12T03:03:46.279Z,60.32
2022-09-12T03:06:36.789Z,60.68
2022-09-12T03:09:15.762Z,60.74
2022-09-12T03:11:57.915Z,59.81
2022-09-12T03:14:50.031Z,60.56
2022-09-12T03:17:21.235Z,60.65
2022-09-12T03:20:00.569Z,60.41
2022-09-12T03:22:31.127Z,60.68
2022-09-12T03:25:08.503Z,60.63
2022-09-12T03:27:41.621Z,61.29
2022-09-12T03:30:14.933Z,61.60
2022-09-12T03:33:03.732Z,61.20
2022-09-12T03:35:34.778Z,61.41
2022-09-12T03:38:08.326Z,61.09
2022-09-12T03:40:54.069Z,61.04
2022-09-12T03:43:26.008Z,60.35
2022-09-12T03:45:54.598Z,59.88
2022-09-12T03:48:24.951Z,60.85
2022-09-12T03:51:03.987Z,59.74
2022-09-12T03:53:37.760Z,61.62
2022-09-12T03:56:13.708Z,60.60
2022-09-12T03:58:49.185Z,61.19
2022-09-12T04:01:25.868Z,60.62
2022-09-12T04:03:56.351Z,60.23
2022-09-12T04:06:33.781Z,60.69
2022-09-12T04:09:08.258Z,61.10
2022-09-12T04:11:41.090Z,61.57
2022-09-12T04:14:38.876Z,62.12
2022-09-12T04:17:12.280Z,62.66
2022-09-12T04:20:08.282Z,62.93
2022-09-12T04:22:38.347Z,62.18
2022-09-12T04:25:17.537Z,61.84
2022-09-12T04:27:55.642Z,62.34
2022-09-12T04:30:39.186Z,62.14
2022-09-12T04:33:11.276Z,61.94
2022-09-12T04:35:43.405Z,63.92
2022-09-12T04:38:14.054Z,65.21
2022-09-12T04:40:45.363Z,64.45
2022-09-12T04:43:22.994Z,63.48
2022-09-12T04:45:58.234Z,62.59
2022-09-12T04:48:56.502Z,62.19
2022-09-12T04:51:33.833Z,62.74
2022-09-12T04:54:19.030Z,62.22
2022-09-12T04:56:50.809Z,63.19
2022-09-12T04:59:24.669Z,62.88
2022-09-12T05:02:01.007Z,63.26
2022-09-12T05:04:36.633Z,62.99
2022-09-12T05:07:09.549Z,62.93
2022-09-12T05:09:39.549Z,61.87
2022-09-12T05:12:12.524Z,61.54
2022-09-12T05:14:46.702Z,62.14
2022-09-12T05:17:22.593Z,62.90
2022-09-12T05:19:57.236Z,62.46
2022-09-12T05:22:28.305Z,61.67
2022-09-12T05:24:58.641Z,62.93
2022-09-12T05:27:29.813Z,62.83
2022-09-12T05:30:05.176Z,63.06
2022-09-12T05:32:37.875Z,63.52
2022-09-12T05:35:08.626Z,64.14
2022-09-12T05:37:41.359Z,63.62
2022-09-12T05:40:17.846Z,63.79
2022-09-12T05:42:57.987Z,63.21
2022-09-12T05:45:48.805Z,62.03
2022-09-12T05:48:31.349Z,63.45
2022-09-12T05:51:01.455Z,63.57
2022-09-12T05:53:33.049Z,64.21
2022-09-12T05:56:09.820Z,64.04
2022-09-12T05:58:49.521Z,62.87
2022-09-12T06:01:27.239Z,62.62
2022-09-12T06:03:58.881Z,63.13
2022-09-12T06:06:27.949Z,62.76
2022-09-12T06:09:01.729Z,62.86
2022-09-12T06:11:34.748Z,62.89
2022-09-12T06:14:02.960Z,62.09
2022-09-12T06:16:37.249Z,62.75
2022-09-12T06:19:07.121Z,62.68
2022-09-12T06:21:48.255Z,62.44
2022-09-12T06:24:16.660Z,62.43
2022-09-12T06:26:44.868Z,62.75
2022-09-12T06:29:16.676Z,61.65
2022-09-12T06:31:44.434Z,62.98
2022-09-12T06:34:14.272Z,62.50
2022-09-12T06:36:48.907Z,63.25
2022-09-12T06:39:23.455Z,62.83
2022-09-12T06:41:51.792Z,62.13
2022-09-12T06:44:38.076Z,61.62
2022-09-12T06:49:35.968Z,61.05
2022-09-12T06:52:04.117Z,61.74
2022-09-12T06:54:34.387Z,61.57
2022-09-12T06:57:02.640Z,60.35
2022-09-12T06:59:36.054Z,60.97
2022-09-12T07:02:12.849Z,60.32
2022-09-12T07:04:45.934Z,61.08
2022-09-12T07:07:19.662Z,60.87
2022-09-12T07:09:50.579Z,60.96
2022-09-12T07:12:24.060Z,64.67
2022-09-12T07:15:14.250Z,63.24
2022-09-12T07:17:41.896Z,62.83
2022-09-12T07:20:15.440Z,62.17
2022-09-12T07:22:43.991Z,62.08
2022-09-12T07:25:12.102Z,60.92
2022-09-12T07:27:39.721Z,60.60
2022-09-12T07:30:14.701Z,63.13
2022-09-12T07:32:48.003Z,60.50
2022-09-12T07:35:21.301Z,59.87
2022-09-12T07:37:51.654Z,59.76
2022-09-12T07:40:19.342Z,58.89
2022-09-12T07:42:52.075Z,58.32
2022-09-12T07:45:22.453Z,58.01
2022-09-12T07:47:53.396Z,57.53
2022-09-12T07:50:24.286Z,57.62
2022-09-12T07:52:58.585Z,57.14
2022-09-12T07:55:26.716Z,57.14
2022-09-12T07:58:12.027Z,57.12
2022-09-12T08:00:42.823Z,56.76
2022-09-12T08:03:19.326Z,55.88
2022-09-12T08:05:49.115Z,56.28
2022-09-12T08:08:38.800Z,55.91
2022-09-12T08:11:07.825Z,56.65
2022-09-12T08:13:42.040Z,55.84
2022-09-12T08:16:13.589Z,56.19
2022-09-12T08:18:48.395Z,58.23
2022-09-12T08:21:25.938Z,58.72
2022-09-12T08:26:52.415Z,57.49
2022-09-12T08:29:24.644Z,56.50
2022-09-12T08:31:57.098Z,56.48
2022-09-12T08:34:28.312Z,55.11
2022-09-12T08:37:01.577Z,56.00
2022-09-12T08:39:29.504Z,57.83
2022-09-12T08:42:04.512Z,57.68
2022-09-12T08:44:41.095Z,56.08
2022-09-12T08:47:08.773Z,57.07
2022-09-12T08:49:38.225Z,58.07
2022-09-12T08:52:18.656Z,57.23
2022-09-12T08:54:47.877Z,57.66
2022-09-12T08:57:19.592Z,54.25
2022-09-12T08:59:50.997Z,54.99
2022-09-12T09:02:23.185Z,52.32
2022-09-12T09:04:59.975Z,51.25
2022-09-12T09:07:32.076Z,51.50
2022-09-12T09:10:16.131Z,53.58
2022-09-12T09:12:53.754Z,53.57
2022-09-12T09:15:24.973Z,56.20
2022-09-12T09:18:00.909Z,55.43
2022-09-12T09:23:22.628Z,54.18
2022-09-12T09:25:56.183Z,54.68
2022-09-12T09:28:34.038Z,53.76
2022-09-12T09:31:03.594Z,52.10
2022-09-12T09:33:34.049Z,49.67
2022-09-12T09:36:20.554Z,49.40
2022-09-12T09:38:54.147Z,51.75
2022-09-12T09:41:38.655Z,52.09
2022-09-12T09:44:09.394Z,50.89
2022-09-12T09:47:00.559Z,50.98
2022-09-12T09:49:40.378Z,51.12
2022-09-12T09:52:11.743Z,49.77
2022-09-12T09:54:43.804Z,50.64
2022-09-12T09:57:33.609Z,51.08
2022-09-12T10:00:22.390Z,50.72
2022-09-12T10:03:12.763Z,50.74
2022-09-12T10:05:45.863Z,51.27
2022-09-12T10:08:24.527Z,47.98
2022-09-12T10:10:59.288Z,50.38
2022-09-12T10:13:41.153Z,49.45
2022-09-12T10:16:19.787Z,49.03
2022-09-12T10:18:50.316Z,53.02
2022-09-12T10:21:26.927Z,49.41
2022-09-12T10:24:00.292Z,47.96
2022-09-12T10:26:40.962Z,46.98
2022-09-12T10:29:13.358Z,45.97
2022-09-12T10:31:52.742Z,48.72
2022-09-12T10:34:31.378Z,46.47
2022-09-12T10:37:06.429Z,47.71
2022-09-12T10:39:36.240Z,48.30
2022-09-12T10:42:14.004Z,48.46
2022-09-12T10:44:48.015Z,51.57
2022-09-12T10:47:28.717Z,48.52
2022-09-12T10:50:26.496Z,50.66
2022-09-12T10:53:36.647Z,48.17
2022-09-12T10:56:16.307Z,49.22
2022-09-12T10:59:06.192Z,48.43
2022-09-12T11:01:47.838Z,47.46
2022-09-12T11:04:42.080Z,46.41
2022-09-12T11:07:18.432Z,43.57
2022-09-12T11:10:04.201Z,45.50
2022-09-12T11:12:50.192Z,45.29
2022-09-12T11:15:59.528Z,48.04
2022-09-12T11:18:43.643Z,43.05
2022-09-12T11:21:14.438Z,43.90
2022-09-12T11:23:52.875Z,41.82
2022-09-12T11:26:44.846Z,38.18
2022-09-12T11:29:26.869Z,38.17
2022-09-12T11:32:13.916Z,36.84
2022-09-12T11:35:00.291Z,36.70
2022-09-12T11:37:42.065Z,31.07
2022-09-12T11:40:29.056Z,33.70
2022-09-12T11:42:59.751Z,32.80
2022-09-12T11:45:31.227Z,30.86
2022-09-12T11:48:09.749Z,29.92
2022-09-12T11:50:49.181Z,33.06
2022-09-12T11:53:34.098Z,36.60
2022-09-12T11:56:15.986Z,36.60
2022-09-12T11:58:44.339Z,33.41
2022-09-12T12:01:23.697Z,31.36
2022-09-12T12:03:53.888Z,26.96
2022-09-12T12:06:22.584Z,30.92
2022-09-12T12:08:56.053Z,33.31
2022-09-12T12:11:27.964Z,30.98
2022-09-12T12:14:06.204Z,30.41
2022-09-12T12:16:34.255Z,31.04
2022-09-12T12:19:03.609Z,28.01
2022-09-12T12:21:36.717Z,27.35
2022-09-12T12:24:28.319Z,27.91
2022-09-12T12:26:57.659Z,30.57
2022-09-12T12:29:35.237Z,29.15
2022-09-12T12:32:04.189Z,28.38
2022-09-12T12:34:32.447Z,30.50
2022-09-12T12:37:07.385Z,28.05
2022-09-12T12:39:41.135Z,24.88
2022-09-12T12:42:17.062Z,24.36
2022-09-12T12:44:53.550Z,27.04
2022-09-12T12:47:29.114Z,27.55
2022-09-12T12:50:03.737Z,28.26
2022-09-12T12:52:45.889Z,26.50
2022-09-12T12:55:22.801Z,25.78
2022-09-12T12:57:58.040Z,23.45
2022-09-12T13:00:28.817Z,26.14
2022-09-12T13:03:07.106Z,24.56
2022-09-12T13:05:42.074Z,27.49
2022-09-12T13:08:10.592Z,29.02
2022-09-12T13:10:41.177Z,27.02
2022-09-12T13:13:22.180Z,25.33
2022-09-12T13:15:52.804Z,27.41
2022-09-12T13:18:23.355Z,26.29
2022-09-12T13:20:55.154Z,25.85
2022-09-12T13:23:30.299Z,26.15
2022-09-12T13:26:01.024Z,28.42
2022-09-12T13:28:34.636Z,27.49
2022-09-12T13:34:24.583Z,27.80
2022-09-12T13:37:11.146Z,29.52
2022-09-12T13:39:46.336Z,31.63
2022-09-12T13:42:24.208Z,34.28
2022-09-12T13:45:29.876Z,35.90
2022-09-12T13:48:25.725Z,36.98
2022-09-12T13:51:43.658Z,40.25
2022-09-12T13:54:40.300Z,38.69
2022-09-12T13:57:30.183Z,40.26
2022-09-12T14:00:02.688Z,40.63
2022-09-12T14:02:35.436Z,40.67
2022-09-12T14:05:13.366Z,44.07
2022-09-12T14:07:44.981Z,43.48
2022-09-12T14:10:16.813Z,42.33
2022-09-12T14:12:50.828Z,42.67
2022-09-12T14:15:28.531Z,42.01
2022-09-12T14:18:02.085Z,42.36
2022-09-12T14:20:36.359Z,42.03
2022-09-12T14:23:07.857Z,42.95
2022-09-12T14:25:45.253Z,43.16
2022-09-12T14:28:13.041Z,43.38
2022-09-12T14:30:40.899Z,40.76
2022-09-12T14:33:11.487Z,41.64
2022-09-12T14:35:43.523Z,43.75
2022-09-12T14:38:20.097Z,40.88
2022-09-12T14:40:51.400Z,44.55
2022-09-12T14:43:25.510Z,43.24
2022-09-12T14:46:13.269Z,42.86
2022-09-12T14:48:59.127Z,42.87
2022-09-12T14:51:34.430Z,44.25
2022-09-12T14:54:05.818Z,43.73
2022-09-12T14:56:46.557Z,44.34
2022-09-12T14:59:44.778Z,41.66
2022-09-12T15:02:24.287Z,43.81
2022-09-12T15:07:53.980Z,44.51
2022-09-12T15:10:31.164Z,42.98
2022-09-12T15:13:15.992Z,44.58
2022-09-12T15:15:50.482Z,46.67
2022-09-12T15:18:21.545Z,42.29
2022-09-12T15:20:58.860Z,43.89
2022-09-12T15:23:43.014Z,44.12
2022-09-12T15:26:14.654Z,45.65
2022-09-12T15:28:45.308Z,44.40
2022-09-12T15:31:17.290Z,45.97
2022-09-12T15:33:45.175Z,47.52
2022-09-12T15:36:16.798Z,43.17
2022-09-12T15:38:47.858Z,45.19
2022-09-12T15:41:44.806Z,45.51
2022-09-12T15:44:13.215Z,45.70
2022-09-12T15:46:49.133Z,43.98
2022-09-12T15:49:17.265Z,44.77
2022-09-12T15:51:45.012Z,44.47
2022-09-12T15:54:19.192Z,43.25
2022-09-12T15:56:49.810Z,43.48
2022-09-12T15:59:25.173Z,44.44
2022-09-12T16:01:55.932Z,43.52
2022-09-12T16:04:24.648Z,43.42
2022-09-12T16:06:59.889Z,43.08
2022-09-12T16:09:30.073Z,46.70
2022-09-12T16:12:00.679Z,49.83
2022-09-12T16:14:30.842Z,46.94
2022-09-12T16:17:01.424Z,49.25
2022-09-12T16:19:36.755Z,50.16
2022-09-12T16:22:09.668Z,47.97
2022-09-12T16:24:38.018Z,51.62
2022-09-12T16:27:10.745Z,47.22
2022-09-12T16:30:07.314Z,47.78
2022-09-12T16:32:37.454Z,49.77
2022-09-12T16:35:10.600Z,52.14
2022-09-12T16:37:41.799Z,51.70
2022-09-12T16:40:12.157Z,50.50
2022-09-12T16:42:43.828Z,50.57
2022-09-12T16:45:12.244Z,51.62
2022-09-12T16:47:42.249Z,53.59
2022-09-12T16:50:14.963Z,52.74
2022-09-12T16:52:46.413Z,51.93
2022-09-12T16:55:19.186Z,54.32
2022-09-12T16:57:49.771Z,53.12
2022-09-12T17:00:19.741Z,53.79
2022-09-12T17:02:48.157Z,52.99
2022-09-12T17:05:18.166Z,52.55
2022-09-12T17:07:46.334Z,53.93
2022-09-12T17:10:19.723Z,53.45
2022-09-12T17:12:47.379Z,54.06
2022-09-12T17:15:15.174Z,54.02
2022-09-12T17:17:48.793Z,53.70
2022-09-12T17:20:17.006Z,53.94
2022-09-12T17:22:52.249Z,54.04
2022-09-12T17:25:21.139Z,54.10
2022-09-12T17:27:55.141Z,51.39
2022-09-12T17:30:25.626Z,54.90
2022-09-12T17:33:02.218Z,54.31
2022-09-12T17:35:35.542Z,54.60
2022-09-12T17:38:03.371Z,54.34
2022-09-12T17:40:58.880Z,54.40
2022-09-12T17:43:28.116Z,54.36
2022-09-12T17:46:04.777Z,54.10
2022-09-12T17:48:39.150Z,50.05
2022-09-12T17:51:17.260Z,53.29
2022-09-12T17:53:56.220Z,54.82
2022-09-12T17:56:49.830Z,54.22
2022-09-12T17:59:25.063Z,55.02
2022-09-12T18:05:05.829Z,50.96
2022-09-12T18:07:38.935Z,50.65
2022-09-12T18:10:12.438Z,51.71
2022-09-12T18:12:50.672Z,54.05
2022-09-12T18:15:21.990Z,54.63
2022-09-12T18:17:54.924Z,52.06
2022-09-12T18:20:25.289Z,53.37
2022-09-12T18:23:04.947Z,54.85
2022-09-12T18:25:40.481Z,55.87
2022-09-12T18:28:14.232Z,55.79
2022-09-12T18:30:47.192Z,55.83
2022-09-12T18:33:24.020Z,53.61
2022-09-12T18:36:01.004Z,55.03
2022-09-12T18:38:49.548Z,55.60
2022-09-12T18:41:24.080Z,54.94
2022-09-12T18:44:02.348Z,56.20
2022-09-12T18:46:37.439Z,56.17
2022-09-12T18:49:10.339Z,55.98
2022-09-12T18:51:42.001Z,55.80
2022-09-12T18:54:18.805Z,55.45
2022-09-12T18:56:51.253Z,55.78
2022-09-12T18:59:21.652Z,56.09
2022-09-12T19:01:54.223Z,55.35
2022-09-12T19:04:44.690Z,55.47
2022-09-12T19:07:17.731Z,54.62
2022-09-12T19:09:49.076Z,55.67
2022-09-12T19:12:19.773Z,55.24
2022-09-12T19:14:47.732Z,55.82
2022-09-12T19:17:15.291Z,56.99
2022-09-12T19:19:46.154Z,56.70
2022-09-12T19:22:15.860Z,56.91
2022-09-12T19:24:44.285Z,56.94
2022-09-12T19:27:17.182Z,56.27
2022-09-12T19:29:45.861Z,56.62
2022-09-12T19:32:13.409Z,56.37
2022-09-12T19:34:44.058Z,54.82
2022-09-12T19:37:12.213Z,55.79
2022-09-12T19:39:46.086Z,56.61
2022-09-12T19:42:13.723Z,56.27
2022-09-12T19:44:59.381Z,55.44
2022-09-12T19:47:26.985Z,56.48
2022-09-12T19:49:54.821Z,56.45
2022-09-12T19:52:22.487Z,56.42
2022-09-12T19:54:53.075Z,57.24
2022-09-12T19:57:26.536Z,56.14
2022-09-12T20:00:01.514Z,56.78
2022-09-12T20:02:30.133Z,57.40
2022-09-12T20:04:57.790Z,56.62
2022-09-12T20:07:28.333Z,56.18
2022-09-12T20:09:58.904Z,57.33
2022-09-12T20:12:30.253Z,57.82
2022-09-12T20:14:58.775Z,58.93
2022-09-12T20:17:26.553Z,58.39
2022-09-12T20:19:54.520Z,58.35
2022-09-12T20:22:28.355Z,58.26
2022-09-12T20:24:55.839Z,58.26
2022-09-12T20:27:28.041Z,59.07
2022-09-12T20:29:58.419Z,59.39
2022-09-12T20:32:29.062Z,59.10
2022-09-12T20:35:00.729Z,58.37
2022-09-12T20:37:33.786Z,57.30
2022-09-12T20:40:09.923Z,58.00
2022-09-12T20:42:39.687Z,58.58
2022-09-12T20:45:10.212Z,57.80
2022-09-12T20:47:41.648Z,57.16
2022-09-12T20:50:09.685Z,57.56
2022-09-12T20:52:37.190Z,58.81
2022-09-12T20:55:06.898Z,57.71
2022-09-12T20:57:34.378Z,57.63
2022-09-12T21:00:02.015Z,58.19
2022-09-12T21:02:34.750Z,58.31
2022-09-12T21:05:10.814Z,58.25
2022-09-12T21:07:41.225Z,58.12
2022-09-12T21:10:13.890Z,58.93
2022-09-12T21:12:46.942Z,59.69
2022-09-12T21:15:17.258Z,57.02
2022-09-12T21:17:53.079Z,58.26
2022-09-12T21:20:23.451Z,57.69
2022-09-12T21:22:53.699Z,58.59
2022-09-12T21:25:26.009Z,57.31
2022-09-12T21:27:57.519Z,57.77
2022-09-12T21:30:29.935Z,56.87
2022-09-12T21:33:01.473Z,57.68
2022-09-12T21:35:40.864Z,58.07
2022-09-12T21:38:16.813Z,58.21
2022-09-12T21:40:45.382Z,58.54
2022-09-12T21:43:13.970Z,57.59
2022-09-12T21:48:31.839Z,58.93
2022-09-12T21:51:01.727Z,59.26
2022-09-12T21:53:32.179Z,59.19
2022-09-12T21:56:07.819Z,59.78
2022-09-12T21:58:39.406Z,59.58
2022-09-12T22:01:12.716Z,58.50
2022-09-12T22:03:44.348Z,58.96
2022-09-12T22:06:15.025Z,59.35
2022-09-12T22:08:45.001Z,59.24
2022-09-12T22:11:13.335Z,59.31
2022-09-12T22:13:46.183Z,58.97
2022-09-12T22:16:18.692Z,58.99
2022-09-12T22:18:54.628Z,59.61
2022-09-12T22:21:28.472Z,58.04
2022-09-12T22:24:20.609Z,59.70
2022-09-12T22:26:51.365Z,58.64
2022-09-12T22:29:25.086Z,58.69
2022-09-12T22:31:57.934Z,59.82
2022-09-12T22:34:31.703Z,58.15
2022-09-12T22:37:05.830Z,59.81
2022-09-12T22:39:36.363Z,59.15
2022-09-12T22:42:06.240Z,58.97
2022-09-12T22:44:39.443Z,59.55
2022-09-12T22:47:07.005Z,59.63
2022-09-12T22:49:37.392Z,59.10
2022-09-12T22:52:07.478Z,58.66
2022-09-12T22:54:42.544Z,59.27
2022-09-12T22:57:11.318Z,58.35
2022-09-12T22:59:39.778Z,59.04
2022-09-12T23:02:07.170Z,58.56
2022-09-12T23:04:34.432Z,60.16
2022-09-12T23:07:04.075Z,59.29
2022-09-12T23:09:35.231Z,59.35
2022-09-12T23:12:05.579Z,58.90
2022-09-12T23:14:32.861Z,58.70
2022-09-12T23:17:00.194Z,58.55
2022-09-12T23:19:28.383Z,58.81
2022-09-12T23:21:58.009Z,58.40
2022-09-12T23:24:25.589Z,58.60
2022-09-12T23:26:52.792Z,58.84
2022-09-12T23:29:20.035Z,58.08
2022-09-12T23:31:48.117Z,57.73
2022-09-12T23:34:17.967Z,59.31
2022-09-12T23:36:45.867Z,58.33
2022-09-12T23:39:13.313Z,59.32
2022-09-12T23:41:42.999Z,59.06
2022-09-12T23:44:12.616Z,58.49
2022-09-12T23:46:42.221Z,58.92
2022-09-12T23:49:09.549Z,59.18
2022-09-12T23:51:36.843Z,59.16
2022-09-12T23:54:04.492Z,59.19
2022-09-12T23:56:36.520Z,58.98
2022-09-12T23:59:03.863Z,59.12
